sensor_id;sensor_type;location;lat;lon;timestamp;pressure;altitude;pressure_sealevel;temperature;humidity
4745;BME280;2386;42.138;24.746;2023-06-14T00:00:37;99220.63;;;22.08;100.00
4745;BME280;2386;42.138;24.746;2023-06-14T00:03:06;99221.13;;;22.10;100.00
4745;BME280;2386;42.138;24.746;2023-06-14T00:05:33;99225.03;;;22.09;100.00
4745;BME280;2386;42.138;24.746;2023-06-14T00:08:04;99229.94;;;22.12;100.00
4745;BME280;2386;42.138;24.746;2023-06-14T00:10:36;99227.28;;;22.07;100.00
4745;BME280;2386;42.138;24.746;2023-06-14T00:13:04;99224.22;;;22.09;100.00
4745;BME280;2386;42.138;24.746;2023-06-14T00:15:33;99226.16;;;22.08;100.00
4745;BME280;2386;42.138;24.746;2023-06-14T00:17:59;99229.56;;;22.05;100.00
4745;BME280;2386;42.138;24.746;2023-06-14T00:20:26;99223.22;;;22.05;100.00
4745;BME280;2386;42.138;24.746;2023-06-14T00:22:52;99221.59;;;22.04;100.00
4745;BME280;2386;42.138;24.746;2023-06-14T00:25:19;99221.38;;;22.00;100.00
4745;BME280;2386;42.138;24.746;2023-06-14T00:27:44;99226.09;;;22.00;100.00
4745;BME280;2386;42.138;24.746;2023-06-14T00:30:10;99218.94;;;21.98;100.00
4745;BME280;2386;42.138;24.746;2023-06-14T00:32:49;99222.63;;;21.94;100.00
4745;BME280;2386;42.138;24.746;2023-06-14T00:35:15;99210.91;;;21.88;100.00
4745;BME280;2386;42.138;24.746;2023-06-14T00:37:40;99210.72;;;21.85;100.00
4745;BME280;2386;42.138;24.746;2023-06-14T00:40:06;99211.22;;;21.87;100.00
4745;BME280;2386;42.138;24.746;2023-06-14T00:42:32;99215.47;;;21.93;100.00
4745;BME280;2386;42.138;24.746;2023-06-14T00:44:59;99214.47;;;21.89;100.00
4745;BME280;2386;42.138;24.746;2023-06-14T00:47:24;99201.78;;;21.88;100.00
4745;BME280;2386;42.138;24.746;2023-06-14T00:49:50;99208.78;;;21.85;100.00
4745;BME280;2386;42.138;24.746;2023-06-14T00:52:16;99195.09;;;21.80;100.00
4745;BME280;2386;42.138;24.746;2023-06-14T00:54:42;99205.50;;;21.83;100.00
4745;BME280;2386;42.138;24.746;2023-06-14T00:57:09;99204.06;;;21.86;100.00
4745;BME280;2386;42.138;24.746;2023-06-14T00:59:40;99196.09;;;21.84;100.00
4745;BME280;2386;42.138;24.746;2023-06-14T01:02:07;99202.94;;;21.87;100.00
4745;BME280;2386;42.138;24.746;2023-06-14T01:04:32;99204.06;;;21.86;100.00
4745;BME280;2386;42.138;24.746;2023-06-14T01:07:18;99192.00;;;21.82;100.00
4745;BME280;2386;42.138;24.746;2023-06-14T01:13:11;99197.91;;;21.67;100.00
4745;BME280;2386;42.138;24.746;2023-06-14T01:15:38;99193.47;;;21.57;100.00
4745;BME280;2386;42.138;24.746;2023-06-14T01:18:04;99197.19;;;21.52;100.00
4745;BME280;2386;42.138;24.746;2023-06-14T01:20:32;99189.53;;;21.49;100.00
4745;BME280;2386;42.138;24.746;2023-06-14T01:22:58;99192.44;;;21.44;100.00
4745;BME280;2386;42.138;24.746;2023-06-14T01:25:24;99199.81;;;21.35;100.00
4745;BME280;2386;42.138;24.746;2023-06-14T01:28:00;99199.13;;;21.29;100.00
4745;BME280;2386;42.138;24.746;2023-06-14T01:30:27;99197.16;;;21.30;100.00
4745;BME280;2386;42.138;24.746;2023-06-14T01:32:55;99193.28;;;21.31;100.00
4745;BME280;2386;42.138;24.746;2023-06-14T01:35:21;99198.88;;;21.40;100.00
4745;BME280;2386;42.138;24.746;2023-06-14T01:37:48;99196.31;;;21.43;100.00
4745;BME280;2386;42.138;24.746;2023-06-14T01:40:15;99195.69;;;21.46;100.00
4745;BME280;2386;42.138;24.746;2023-06-14T01:42:41;99199.56;;;21.45;100.00
4745;BME280;2386;42.138;24.746;2023-06-14T01:45:08;99196.00;;;21.45;100.00
4745;BME280;2386;42.138;24.746;2023-06-14T01:47:35;99185.28;;;21.43;100.00
4745;BME280;2386;42.138;24.746;2023-06-14T01:50:02;99190.78;;;21.43;100.00
4745;BME280;2386;42.138;24.746;2023-06-14T01:52:29;99184.78;;;21.41;100.00
4745;BME280;2386;42.138;24.746;2023-06-14T01:54:54;99191.03;;;21.33;100.00
4745;BME280;2386;42.138;24.746;2023-06-14T01:57:21;99195.31;;;21.39;100.00
4745;BME280;2386;42.138;24.746;2023-06-14T01:59:47;99194.69;;;21.42;100.00
4745;BME280;2386;42.138;24.746;2023-06-14T02:02:14;99193.88;;;21.42;100.00
4745;BME280;2386;42.138;24.746;2023-06-14T02:04:40;99194.50;;;21.39;100.00
4745;BME280;2386;42.138;24.746;2023-06-14T02:07:06;99189.91;;;21.34;100.00
4745;BME280;2386;42.138;24.746;2023-06-14T02:09:32;99196.25;;;21.35;100.00
4745;BME280;2386;42.138;24.746;2023-06-14T02:11:57;99193.66;;;21.38;100.00
4745;BME280;2386;42.138;24.746;2023-06-14T02:14:23;99194.59;;;21.34;100.00
4745;BME280;2386;42.138;24.746;2023-06-14T02:17:04;99197.47;;;21.28;100.00
4745;BME280;2386;42.138;24.746;2023-06-14T02:19:29;99190.03;;;21.29;100.00
4745;BME280;2386;42.138;24.746;2023-06-14T02:21:55;99198.69;;;21.36;100.00
4745;BME280;2386;42.138;24.746;2023-06-14T02:24:20;99189.00;;;21.25;100.00
4745;BME280;2386;42.138;24.746;2023-06-14T02:26:46;99201.06;;;21.29;100.00
4745;BME280;2386;42.138;24.746;2023-06-14T02:29:11;99198.63;;;21.27;100.00
4745;BME280;2386;42.138;24.746;2023-06-14T02:31:40;99204.94;;;21.28;100.00
4745;BME280;2386;42.138;24.746;2023-06-14T02:34:05;99204.44;;;21.26;100.00
4745;BME280;2386;42.138;24.746;2023-06-14T02:36:38;99208.84;;;21.27;100.00
4745;BME280;2386;42.138;24.746;2023-06-14T02:39:07;99203.31;;;21.27;100.00
4745;BME280;2386;42.138;24.746;2023-06-14T02:41:34;99201.06;;;21.29;100.00
4745;BME280;2386;42.138;24.746;2023-06-14T02:44:00;99214.97;;;21.24;100.00
4745;BME280;2386;42.138;24.746;2023-06-14T02:46:25;99206.28;;;21.17;100.00
4745;BME280;2386;42.138;24.746;2023-06-14T02:48:50;99206.19;;;21.22;100.00
4745;BME280;2386;42.138;24.746;2023-06-14T02:51:16;99200.44;;;21.18;100.00
4745;BME280;2386;42.138;24.746;2023-06-14T02:53:41;99202.50;;;21.13;100.00
4745;BME280;2386;42.138;24.746;2023-06-14T02:56:06;99209.34;;;21.15;100.00
4745;BME280;2386;42.138;24.746;2023-06-14T02:58:32;99210.28;;;21.11;100.00
4745;BME280;2386;42.138;24.746;2023-06-14T03:00:58;99217.22;;;21.08;100.00
4745;BME280;2386;42.138;24.746;2023-06-14T03:03:29;99214.78;;;21.07;100.00
4745;BME280;2386;42.138;24.746;2023-06-14T03:05:55;99216.91;;;21.10;100.00
4745;BME280;2386;42.138;24.746;2023-06-14T03:08:20;99223.06;;;21.07;100.00
4745;BME280;2386;42.138;24.746;2023-06-14T03:10:46;99223.59;;;20.95;100.00
4745;BME280;2386;42.138;24.746;2023-06-14T03:13:34;99245.22;;;21.02;100.00
4745;BME280;2386;42.138;24.746;2023-06-14T03:16:00;99237.25;;;21.00;100.00
4745;BME280;2386;42.138;24.746;2023-06-14T03:18:29;99237.69;;;20.93;100.00
4745;BME280;2386;42.138;24.746;2023-06-14T03:20:55;99244.81;;;20.94;100.00
4745;BME280;2386;42.138;24.746;2023-06-14T03:23:22;99240.75;;;20.92;100.00
4745;BME280;2386;42.138;24.746;2023-06-14T03:25:48;99240.75;;;20.92;100.00
4745;BME280;2386;42.138;24.746;2023-06-14T03:28:13;99243.59;;;21.00;100.00
4745;BME280;2386;42.138;24.746;2023-06-14T03:30:39;99244.22;;;20.97;100.00
4745;BME280;2386;42.138;24.746;2023-06-14T03:33:04;99256.25;;;21.02;100.00
4745;BME280;2386;42.138;24.746;2023-06-14T03:35:30;99250.13;;;21.05;100.00
4745;BME280;2386;42.138;24.746;2023-06-14T03:37:55;99251.88;;;21.00;100.00
4745;BME280;2386;42.138;24.746;2023-06-14T03:40:21;99256.25;;;21.02;100.00
4745;BME280;2386;42.138;24.746;2023-06-14T03:42:48;99265.56;;;21.06;100.00
4745;BME280;2386;42.138;24.746;2023-06-14T03:45:13;99257.28;;;21.06;100.00
4745;BME280;2386;42.138;24.746;2023-06-14T03:47:38;99265.44;;;21.11;100.00
4745;BME280;2386;42.138;24.746;2023-06-14T03:50:04;99261.56;;;21.12;100.00
4745;BME280;2386;42.138;24.746;2023-06-14T03:52:31;99265.34;;;21.16;100.00
4745;BME280;2386;42.138;24.746;2023-06-14T03:54:57;99281.78;;;21.21;100.00
4745;BME280;2386;42.138;24.746;2023-06-14T03:57:23;99274.34;;;21.21;100.00
4745;BME280;2386;42.138;24.746;2023-06-14T03:59:48;99277.09;;;21.21;100.00
4745;BME280;2386;42.138;24.746;2023-06-14T04:02:15;99270.97;;;21.11;100.00
4745;BME280;2386;42.138;24.746;2023-06-14T04:04:41;99276.88;;;21.18;100.00
4745;BME280;2386;42.138;24.746;2023-06-14T04:07:12;99274.44;;;21.30;100.00
4745;BME280;2386;42.138;24.746;2023-06-14T04:09:38;99284.53;;;21.35;100.00
4745;BME280;2386;42.138;24.746;2023-06-14T04:12:05;99282.09;;;21.33;100.00
4745;BME280;2386;42.138;24.746;2023-06-14T04:14:31;99286.88;;;21.41;100.00
4745;BME280;2386;42.138;24.746;2023-06-14T04:16:58;99285.63;;;21.47;100.00
4745;BME280;2386;42.138;24.746;2023-06-14T04:19:24;99284.44;;;21.26;100.00
4745;BME280;2386;42.138;24.746;2023-06-14T04:21:50;99289.34;;;21.29;100.00
4745;BME280;2386;42.138;24.746;2023-06-14T04:24:16;99285.25;;;21.13;100.00
4745;BME280;2386;42.138;24.746;2023-06-14T04:26:42;99280.56;;;21.13;100.00
4745;BME280;2386;42.138;24.746;2023-06-14T04:29:12;99285.16;;;21.18;100.00
4745;BME280;2386;42.138;24.746;2023-06-14T04:31:45;99293.63;;;21.35;100.00
4745;BME280;2386;42.138;24.746;2023-06-14T04:34:11;99293.59;;;21.49;100.00
4745;BME280;2386;42.138;24.746;2023-06-14T04:36:42;99279.69;;;21.54;100.00
4745;BME280;2386;42.138;24.746;2023-06-14T04:39:20;99293.53;;;21.62;100.00
4745;BME280;2386;42.138;24.746;2023-06-14T04:41:46;99292.09;;;21.65;100.00
4745;BME280;2386;42.138;24.746;2023-06-14T04:44:19;99286.88;;;21.63;100.00
4745;BME280;2386;42.138;24.746;2023-06-14T04:46:45;99287.38;;;21.65;100.00
4745;BME280;2386;42.138;24.746;2023-06-14T04:49:17;99299.63;;;21.73;100.00
4745;BME280;2386;42.138;24.746;2023-06-14T04:51:44;99293.63;;;21.71;100.00
4745;BME280;2386;42.138;24.746;2023-06-14T04:54:11;99291.53;;;21.77;100.00
4745;BME280;2386;42.138;24.746;2023-06-14T04:56:40;99300.22;;;21.84;100.00
4745;BME280;2386;42.138;24.746;2023-06-14T05:07:38;99288.72;;;21.68;100.00
4745;BME280;2386;42.138;24.746;2023-06-14T05:10:04;99309.44;;;21.79;100.00
4745;BME280;2386;42.138;24.746;2023-06-14T05:12:31;99303.97;;;21.65;100.00
4745;BME280;2386;42.138;24.746;2023-06-14T05:14:56;99310.69;;;21.73;100.00
4745;BME280;2386;42.138;24.746;2023-06-14T05:17:23;99308.22;;;21.72;100.00
4745;BME280;2386;42.138;24.746;2023-06-14T05:19:49;99308.97;;;21.63;100.00
4745;BME280;2386;42.138;24.746;2023-06-14T05:22:14;99318.75;;;21.47;100.00
4745;BME280;2386;42.138;24.746;2023-06-14T05:24:40;99319.28;;;21.72;100.00
4745;BME280;2386;42.138;24.746;2023-06-14T05:27:12;99316.41;;;21.77;100.00
4745;BME280;2386;42.138;24.746;2023-06-14T05:29:40;99321.06;;;21.90;100.00
4745;BME280;2386;42.138;24.746;2023-06-14T05:32:06;99331.91;;;21.86;100.00
4745;BME280;2386;42.138;24.746;2023-06-14T05:34:31;99342.38;;;21.76;100.00
4745;BME280;2386;42.138;24.746;2023-06-14T05:36:57;99339.22;;;21.69;100.00
4745;BME280;2386;42.138;24.746;2023-06-14T05:39:22;99335.03;;;21.71;100.00
4745;BME280;2386;42.138;24.746;2023-06-14T05:47:06;99328.88;;;21.52;100.00
4745;BME280;2386;42.138;24.746;2023-06-14T05:49:32;99353.44;;;21.62;100.00
4745;BME280;2386;42.138;24.746;2023-06-14T05:51:57;99349.81;;;21.53;100.00
4745;BME280;2386;42.138;24.746;2023-06-14T05:54:23;99359.03;;;21.48;100.00
4745;BME280;2386;42.138;24.746;2023-06-14T05:56:48;99354.75;;;21.42;100.00
4745;BME280;2386;42.138;24.746;2023-06-14T05:59:14;99360.97;;;21.48;100.00
4745;BME280;2386;42.138;24.746;2023-06-14T06:01:40;99362.31;;;21.50;100.00
4745;BME280;2386;42.138;24.746;2023-06-14T06:04:17;99353.00;;;21.46;100.00
4745;BME280;2386;42.138;24.746;2023-06-14T06:06:45;99332.56;;;21.34;100.00
4745;BME280;2386;42.138;24.746;2023-06-14T06:09:12;99357.41;;;21.47;100.00
4745;BME280;2386;42.138;24.746;2023-06-14T06:11:39;99343.09;;;21.45;100.00
4745;BME280;2386;42.138;24.746;2023-06-14T06:17:27;99348.34;;;21.55;100.00
4745;BME280;2386;42.138;24.746;2023-06-14T06:19:53;99351.78;;;21.75;100.00
4745;BME280;2386;42.138;24.746;2023-06-14T06:22:27;99357.47;;;21.92;100.00
4745;BME280;2386;42.138;24.746;2023-06-14T06:24:53;99352.59;;;21.75;100.00
4745;BME280;2386;42.138;24.746;2023-06-14T06:27:18;99360.34;;;21.87;100.00
4745;BME280;2386;42.138;24.746;2023-06-14T06:29:44;99358.53;;;21.82;100.00
4745;BME280;2386;42.138;24.746;2023-06-14T06:32:09;99361.59;;;21.81;100.00
4745;BME280;2386;42.138;24.746;2023-06-14T06:34:36;99356.88;;;21.81;100.00
4745;BME280;2386;42.138;24.746;2023-06-14T06:37:02;99349.09;;;21.83;100.00
4745;BME280;2386;42.138;24.746;2023-06-14T06:39:36;99352.75;;;21.92;100.00
4745;BME280;2386;42.138;24.746;2023-06-14T06:42:02;99361.66;;;22.03;100.00
4745;BME280;2386;42.138;24.746;2023-06-14T06:44:28;99349.22;;;22.14;100.00
4745;BME280;2386;42.138;24.746;2023-06-14T06:47:22;99346.56;;;22.32;100.00
4745;BME280;2386;42.138;24.746;2023-06-14T06:50:20;99351.84;;;22.42;100.00
4745;BME280;2386;42.138;24.746;2023-06-14T06:55:54;99355.06;;;22.66;100.00
4745;BME280;2386;42.138;24.746;2023-06-14T06:58:23;99366.44;;;22.87;100.00
4745;BME280;2386;42.138;24.746;2023-06-14T07:00:49;99373.16;;;22.94;100.00
4745;BME280;2386;42.138;24.746;2023-06-14T07:03:14;99367.16;;;23.01;100.00
4745;BME280;2386;42.138;24.746;2023-06-14T07:05:40;99363.91;;;23.08;100.00
4745;BME280;2386;42.138;24.746;2023-06-14T07:08:06;99372.91;;;23.22;100.00
4745;BME280;2386;42.138;24.746;2023-06-14T07:10:40;99368.06;;;23.36;100.00
4745;BME280;2386;42.138;24.746;2023-06-14T07:13:05;99360.59;;;23.45;100.00
4745;BME280;2386;42.138;24.746;2023-06-14T07:15:31;99367.13;;;23.49;100.00
4745;BME280;2386;42.138;24.746;2023-06-14T07:17:56;99356.28;;;23.62;100.00
4745;BME280;2386;42.138;24.746;2023-06-14T07:20:24;99352.22;;;23.76;100.00
4745;BME280;2386;42.138;24.746;2023-06-14T07:22:50;99359.03;;;23.79;100.00
4745;BME280;2386;42.138;24.746;2023-06-14T07:25:16;99351.22;;;23.81;100.00
4745;BME280;2386;42.138;24.746;2023-06-14T07:27:45;99357.41;;;23.95;99.03
4745;BME280;2386;42.138;24.746;2023-06-14T07:30:11;99350.72;;;24.13;99.04
4745;BME280;2386;42.138;24.746;2023-06-14T07:32:37;99358.72;;;24.23;100.00
4745;BME280;2386;42.138;24.746;2023-06-14T07:35:03;99358.91;;;24.36;98.72
4745;BME280;2386;42.138;24.746;2023-06-14T07:37:29;99351.88;;;24.47;98.60
4745;BME280;2386;42.138;24.746;2023-06-14T07:39:54;99362.88;;;24.64;98.83
4745;BME280;2386;42.138;24.746;2023-06-14T07:42:20;99351.63;;;24.69;96.95
4745;BME280;2386;42.138;24.746;2023-06-14T07:44:46;99358.78;;;24.79;97.18
4745;BME280;2386;42.138;24.746;2023-06-14T07:47:11;99353.38;;;24.82;95.88
4745;BME280;2386;42.138;24.746;2023-06-14T07:49:36;99349.75;;;24.90;96.36
4745;BME280;2386;42.138;24.746;2023-06-14T07:52:02;99353.34;;;25.00;93.49
4745;BME280;2386;42.138;24.746;2023-06-14T07:54:28;99352.00;;;25.06;92.17
4745;BME280;2386;42.138;24.746;2023-06-14T07:56:55;99355.28;;;25.08;91.54
4745;BME280;2386;42.138;24.746;2023-06-14T07:59:21;99343.34;;;25.07;92.16
4745;BME280;2386;42.138;24.746;2023-06-14T08:01:46;99354.09;;;25.17;89.18
4745;BME280;2386;42.138;24.746;2023-06-14T08:04:14;99359.31;;;25.19;89.02
4745;BME280;2386;42.138;24.746;2023-06-14T08:06:39;99362.09;;;25.19;90.38
4745;BME280;2386;42.138;24.746;2023-06-14T08:09:09;99362.56;;;25.21;90.64
4745;BME280;2386;42.138;24.746;2023-06-14T08:11:34;99364.66;;;25.24;88.70
4745;BME280;2386;42.138;24.746;2023-06-14T08:14:01;99366.16;;;25.21;85.77
4745;BME280;2386;42.138;24.746;2023-06-14T08:16:26;99369.53;;;25.27;86.48
4745;BME280;2386;42.138;24.746;2023-06-14T08:18:51;99368.53;;;25.32;86.36
4745;BME280;2386;42.138;24.746;2023-06-14T08:21:17;99371.91;;;25.37;85.45
4745;BME280;2386;42.138;24.746;2023-06-14T08:23:43;99374.78;;;25.49;85.25
4745;BME280;2386;42.138;24.746;2023-06-14T08:26:09;99381.31;;;25.53;83.49
4745;BME280;2386;42.138;24.746;2023-06-14T08:28:34;99379.69;;;25.52;82.21
4745;BME280;2386;42.138;24.746;2023-06-14T08:31:00;99389.59;;;25.62;81.73
4745;BME280;2386;42.138;24.746;2023-06-14T08:33:25;99381.72;;;25.73;82.39
4745;BME280;2386;42.138;24.746;2023-06-14T08:35:50;99389.31;;;25.84;80.92
4745;BME280;2386;42.138;24.746;2023-06-14T08:38:16;99383.63;;;25.81;79.71
4745;BME280;2386;42.138;24.746;2023-06-14T08:40:42;99396.66;;;25.89;79.13
4745;BME280;2386;42.138;24.746;2023-06-14T08:43:07;99388.81;;;26.03;80.78
4745;BME280;2386;42.138;24.746;2023-06-14T08:45:33;99388.88;;;26.15;81.44
4745;BME280;2386;42.138;24.746;2023-06-14T08:47:59;99397.28;;;26.28;78.31
4745;BME280;2386;42.138;24.746;2023-06-14T08:50:25;99389.72;;;26.37;78.88
4745;BME280;2386;42.138;24.746;2023-06-14T08:52:54;99393.91;;;26.43;76.00
4745;BME280;2386;42.138;24.746;2023-06-14T08:55:23;99396.16;;;26.49;75.27
4745;BME280;2386;42.138;24.746;2023-06-14T08:57:54;99374.50;;;26.55;73.76
4745;BME280;2386;42.138;24.746;2023-06-14T09:00:20;99381.25;;;26.66;73.01
4745;BME280;2386;42.138;24.746;2023-06-14T09:02:46;99383.09;;;26.74;72.13
4745;BME280;2386;42.138;24.746;2023-06-14T09:05:12;99387.53;;;26.88;73.20
4745;BME280;2386;42.138;24.746;2023-06-14T09:07:44;99393.63;;;27.02;73.41
4745;BME280;2386;42.138;24.746;2023-06-14T09:10:11;99383.78;;;27.04;70.81
4745;BME280;2386;42.138;24.746;2023-06-14T09:12:37;99382.41;;;26.77;69.84
4745;BME280;2386;42.138;24.746;2023-06-14T09:15:03;99386.34;;;26.76;71.10
4745;BME280;2386;42.138;24.746;2023-06-14T09:17:37;99373.50;;;26.72;71.83
4745;BME280;2386;42.138;24.746;2023-06-14T09:20:04;99372.88;;;26.54;71.17
4745;BME280;2386;42.138;24.746;2023-06-14T09:22:43;99369.09;;;26.38;72.16
4745;BME280;2386;42.138;24.746;2023-06-14T09:25:08;99363.66;;;26.41;72.75
4745;BME280;2386;42.138;24.746;2023-06-14T09:27:34;99367.16;;;26.50;74.61
4745;BME280;2386;42.138;24.746;2023-06-14T09:30:02;99365.97;;;26.39;74.43
4745;BME280;2386;42.138;24.746;2023-06-14T09:32:28;99367.97;;;26.51;73.09
4745;BME280;2386;42.138;24.746;2023-06-14T09:34:54;99361.72;;;26.54;72.68
4745;BME280;2386;42.138;24.746;2023-06-14T09:37:30;99364.78;;;26.61;72.39
4745;BME280;2386;42.138;24.746;2023-06-14T09:39:56;99356.19;;;26.66;73.40
4745;BME280;2386;42.138;24.746;2023-06-14T09:42:22;99360.19;;;26.44;70.66
4745;BME280;2386;42.138;24.746;2023-06-14T09:44:52;99355.34;;;26.54;70.94
4745;BME280;2386;42.138;24.746;2023-06-14T09:47:20;99355.06;;;26.34;69.80
4745;BME280;2386;42.138;24.746;2023-06-14T09:49:47;99360.84;;;26.62;71.76
4745;BME280;2386;42.138;24.746;2023-06-14T09:52:18;99356.69;;;26.68;73.42
4745;BME280;2386;42.138;24.746;2023-06-14T09:54:45;99355.72;;;26.64;73.26
4745;BME280;2386;42.138;24.746;2023-06-14T09:57:12;99355.56;;;26.48;72.96
4745;BME280;2386;42.138;24.746;2023-06-14T09:59:47;99352.22;;;26.55;72.92
4745;BME280;2386;42.138;24.746;2023-06-14T10:02:26;99349.25;;;26.72;76.45
4745;BME280;2386;42.138;24.746;2023-06-14T10:05:02;99351.56;;;26.82;73.84
4745;BME280;2386;42.138;24.746;2023-06-14T10:07:59;99347.19;;;26.94;76.18
4745;BME280;2386;42.138;24.746;2023-06-14T10:10:25;99356.28;;;27.03;78.03
4745;BME280;2386;42.138;24.746;2023-06-14T10:12:51;99347.16;;;26.69;74.84
4745;BME280;2386;42.138;24.746;2023-06-14T10:15:38;99352.09;;;26.97;78.32
4745;BME280;2386;42.138;24.746;2023-06-14T10:21:28;99337.13;;;27.01;80.36
4745;BME280;2386;42.138;24.746;2023-06-14T10:24:01;99337.25;;;27.05;77.35
4745;BME280;2386;42.138;24.746;2023-06-14T10:26:29;99341.84;;;27.49;77.68
4745;BME280;2386;42.138;24.746;2023-06-14T10:28:59;99336.06;;;27.67;76.63
4745;BME280;2386;42.138;24.746;2023-06-14T10:31:43;99337.09;;;27.74;75.17
4745;BME280;2386;42.138;24.746;2023-06-14T10:34:09;99332.88;;;27.80;73.16
4745;BME280;2386;42.138;24.746;2023-06-14T10:36:35;99329.53;;;27.75;71.24
4745;BME280;2386;42.138;24.746;2023-06-14T10:39:05;99325.97;;;27.62;68.83
4745;BME280;2386;42.138;24.746;2023-06-14T10:41:37;99332.16;;;27.96;70.22
4745;BME280;2386;42.138;24.746;2023-06-14T10:46:37;99333.06;;;27.47;68.83
4745;BME280;2386;42.138;24.746;2023-06-14T10:49:02;99328.81;;;27.78;70.69
4745;BME280;2386;42.138;24.746;2023-06-14T10:51:29;99330.88;;;27.93;69.81
4745;BME280;2386;42.138;24.746;2023-06-14T10:53:58;99310.69;;;27.84;71.49
4745;BME280;2386;42.138;24.746;2023-06-14T10:56:29;99325.56;;;27.88;72.42
4745;BME280;2386;42.138;24.746;2023-06-14T10:58:56;99327.13;;;28.01;71.67
4745;BME280;2386;42.138;24.746;2023-06-14T11:04:07;99307.09;;;28.39;69.87
4745;BME280;2386;42.138;24.746;2023-06-14T11:06:50;99312.06;;;27.90;63.25
4745;BME280;2386;42.138;24.746;2023-06-14T11:09:40;99315.72;;;28.06;66.49
4745;BME280;2386;42.138;24.746;2023-06-14T11:12:11;99319.06;;;27.84;63.25
4745;BME280;2386;42.138;24.746;2023-06-14T11:14:38;99321.50;;;28.13;66.76
4745;BME280;2386;42.138;24.746;2023-06-14T11:17:04;99322.31;;;28.14;64.33
4745;BME280;2386;42.138;24.746;2023-06-14T11:19:30;99320.13;;;28.07;64.01
4745;BME280;2386;42.138;24.746;2023-06-14T11:21:57;99313.63;;;27.75;63.18
4745;BME280;2386;42.138;24.746;2023-06-14T11:24:22;99314.09;;;28.05;65.53
4745;BME280;2386;42.138;24.746;2023-06-14T11:26:48;99301.78;;;28.06;65.87
4745;BME280;2386;42.138;24.746;2023-06-14T11:29:15;99297.56;;;28.12;66.12
4745;BME280;2386;42.138;24.746;2023-06-14T11:31:43;99293.91;;;27.96;67.79
4745;BME280;2386;42.138;24.746;2023-06-14T11:34:10;99298.84;;;28.15;71.07
4745;BME280;2386;42.138;24.746;2023-06-14T11:36:35;99291.47;;;28.23;66.97
4745;BME280;2386;42.138;24.746;2023-06-14T11:39:03;99286.50;;;28.44;70.09
4745;BME280;2386;42.138;24.746;2023-06-14T11:44:03;99289.75;;;28.77;69.07
4745;BME280;2386;42.138;24.746;2023-06-14T11:46:29;99296.56;;;29.27;65.01
4745;BME280;2386;42.138;24.746;2023-06-14T11:48:54;99282.97;;;30.38;58.52
4745;BME280;2386;42.138;24.746;2023-06-14T11:51:20;99279.50;;;32.33;49.36
4745;BME280;2386;42.138;24.746;2023-06-14T11:53:46;99288.16;;;34.40;45.17
4745;BME280;2386;42.138;24.746;2023-06-14T11:56:12;99282.88;;;35.70;41.05
4745;BME280;2386;42.138;24.746;2023-06-14T11:58:38;99273.63;;;37.09;36.67
4745;BME280;2386;42.138;24.746;2023-06-14T12:01:03;99282.16;;;37.84;37.05
4745;BME280;2386;42.138;24.746;2023-06-14T12:03:29;99279.66;;;38.20;35.23
4745;BME280;2386;42.138;24.746;2023-06-14T12:06:07;99290.53;;;39.06;35.15
4745;BME280;2386;42.138;24.746;2023-06-14T12:08:37;99290.00;;;40.17;32.06
4745;BME280;2386;42.138;24.746;2023-06-14T12:11:07;99286.56;;;40.26;31.33
4745;BME280;2386;42.138;24.746;2023-06-14T12:13:38;99293.19;;;40.39;32.76
4745;BME280;2386;42.138;24.746;2023-06-14T12:16:04;99281.72;;;41.27;29.42
4745;BME280;2386;42.138;24.746;2023-06-14T12:18:36;99288.03;;;41.64;28.85
4745;BME280;2386;42.138;24.746;2023-06-14T12:21:06;99282.91;;;42.00;29.16
4745;BME280;2386;42.138;24.746;2023-06-14T12:23:58;99272.94;;;41.80;29.48
4745;BME280;2386;42.138;24.746;2023-06-14T12:26:24;99264.56;;;41.60;30.62
4745;BME280;2386;42.138;24.746;2023-06-14T12:28:51;99260.91;;;42.01;27.86
4745;BME280;2386;42.138;24.746;2023-06-14T12:31:17;99267.47;;;42.52;27.44
4745;BME280;2386;42.138;24.746;2023-06-14T12:33:43;99262.91;;;41.88;28.44
4745;BME280;2386;42.138;24.746;2023-06-14T12:36:11;99269.63;;;41.52;29.42
4745;BME280;2386;42.138;24.746;2023-06-14T12:38:36;99262.03;;;40.68;30.93
4745;BME280;2386;42.138;24.746;2023-06-14T12:41:02;99251.72;;;40.74;30.02
4745;BME280;2386;42.138;24.746;2023-06-14T12:43:28;99257.41;;;41.23;29.12
4745;BME280;2386;42.138;24.746;2023-06-14T13:04:49;99234.00;;;44.35;25.68
4745;BME280;2386;42.138;24.746;2023-06-14T13:07:22;99236.97;;;44.62;24.86
4745;BME280;2386;42.138;24.746;2023-06-14T13:09:50;99242.88;;;43.75;24.29
4745;BME280;2386;42.138;24.746;2023-06-14T13:12:15;99237.31;;;43.58;25.00
4745;BME280;2386;42.138;24.746;2023-06-14T13:14:41;99231.94;;;44.35;23.64
4745;BME280;2386;42.138;24.746;2023-06-14T13:17:09;99224.78;;;43.78;24.69
4745;BME280;2386;42.138;24.746;2023-06-14T13:19:35;99233.66;;;43.36;25.14
4745;BME280;2386;42.138;24.746;2023-06-14T13:22:01;99239.41;;;42.89;26.10
4745;BME280;2386;42.138;24.746;2023-06-14T13:24:27;99230.53;;;43.09;25.55
4745;BME280;2386;42.138;24.746;2023-06-14T13:26:53;99227.59;;;43.34;25.47
4745;BME280;2386;42.138;24.746;2023-06-14T13:29:19;99230.03;;;43.23;25.73
4745;BME280;2386;42.138;24.746;2023-06-14T13:31:44;99216.00;;;43.16;26.92
4745;BME280;2386;42.138;24.746;2023-06-14T13:34:10;99214.34;;;44.15;25.98
4745;BME280;2386;42.138;24.746;2023-06-14T13:36:35;99205.19;;;43.98;25.14
4745;BME280;2386;42.138;24.746;2023-06-14T13:39:01;99204.97;;;44.45;25.00
4745;BME280;2386;42.138;24.746;2023-06-14T13:41:28;99218.03;;;43.93;25.48
4745;BME280;2386;42.138;24.746;2023-06-14T13:44:01;99207.66;;;42.74;26.43
4745;BME280;2386;42.138;24.746;2023-06-14T13:46:29;99197.38;;;41.46;27.74
4745;BME280;2386;42.138;24.746;2023-06-14T13:48:54;99187.91;;;40.75;28.92
4745;BME280;2386;42.138;24.746;2023-06-14T13:51:19;99185.94;;;40.39;30.34
4745;BME280;2386;42.138;24.746;2023-06-14T13:53:47;99191.66;;;40.20;30.29
4745;BME280;2386;42.138;24.746;2023-06-14T13:56:12;99192.03;;;39.26;31.15
4745;BME280;2386;42.138;24.746;2023-06-14T13:58:38;99183.84;;;38.85;31.57
4745;BME280;2386;42.138;24.746;2023-06-14T14:01:03;99188.66;;;38.14;32.27